createdAt,value
2019-04-04T00:00:14.313Z,98458.38
2019-04-04T00:02:42.564Z,98454.52
2019-04-04T00:05:09.361Z,98449.61
2019-04-04T00:07:36.476Z,98445.14
2019-04-04T00:10:05.163Z,98448.39
2019-04-04T00:12:32.452Z,98433.83
2019-04-04T00:14:59.173Z,98438.50
2019-04-04T00:17:25.998Z,98426.55
2019-04-04T00:19:52.715Z,98430.41
2019-04-04T00:22:19.504Z,98421.45
2019-04-04T00:24:46.259Z,98430.77
2019-04-04T00:27:13.681Z,98436.21
2019-04-04T00:29:40.800Z,98451.23
2019-04-04T00:32:07.546Z,98447.20
2019-04-04T00:34:34.346Z,98451.29
2019-04-04T00:37:04.368Z,98448.54
2019-04-04T00:39:29.988Z,98438.19
2019-04-04T00:41:56.802Z,98442.44
2019-04-04T00:44:23.747Z,98440.64
2019-04-04T00:46:50.533Z,98438.80
2019-04-04T00:49:17.256Z,98435.94
2019-04-04T00:51:43.990Z,98436.55
2019-04-04T00:54:12.070Z,98438.00
2019-04-04T00:56:39.477Z,98437.41
2019-04-04T00:59:06.367Z,98435.16
2019-04-04T01:01:33.100Z,98439.25
2019-04-04T01:04:01.020Z,98428.88
2019-04-04T01:06:29.451Z,98429.53
2019-04-04T01:08:56.239Z,98427.52
2019-04-04T01:11:23.153Z,98431.59
2019-04-04T01:13:50.204Z,98421.83
2019-04-04T01:16:16.978Z,98424.30
2019-04-04T01:18:43.710Z,98425.09
2019-04-04T01:21:10.493Z,98425.91
2019-04-04T01:23:37.551Z,98412.33
2019-04-04T01:26:04.493Z,98415.00
2019-04-04T01:28:31.222Z,98408.15
2019-04-04T01:30:58.166Z,98406.12
2019-04-04T01:33:24.961Z,98399.62
2019-04-04T01:35:53.723Z,98400.84
2019-04-04T01:38:20.411Z,98405.67
2019-04-04T01:40:47.458Z,98409.72
2019-04-04T01:43:14.169Z,98411.78
2019-04-04T01:45:43.743Z,98410.36
2019-04-04T01:48:09.564Z,98410.55
2019-04-04T01:50:36.537Z,98406.94
2019-04-04T01:53:03.315Z,98406.33
2019-04-04T01:55:30.260Z,98409.38
2019-04-04T01:57:57.110Z,98416.23
2019-04-04T02:00:24.077Z,98408.14
2019-04-04T02:02:51.898Z,98407.77
2019-04-04T02:05:19.170Z,98415.02
2019-04-04T02:07:46.009Z,98407.36
2019-04-04T02:10:12.906Z,98413.03
2019-04-04T02:12:39.661Z,98411.43
2019-04-04T02:15:07.696Z,98417.88
2019-04-04T02:17:34.436Z,98413.20
2019-04-04T02:20:01.392Z,98426.38
2019-04-04T02:22:30.625Z,98419.09
2019-04-04T02:24:56.925Z,98416.84
2019-04-04T02:27:23.767Z,98411.98
2019-04-04T02:29:50.660Z,98419.70
2019-04-04T02:32:19.317Z,98429.22
2019-04-04T02:34:46.248Z,98415.83
2019-04-04T02:37:13.054Z,98418.06
2019-04-04T02:39:39.790Z,98422.34
2019-04-04T02:42:06.617Z,98418.06
2019-04-04T02:44:33.396Z,98410.98
2019-04-04T02:47:00.175Z,98418.47
2019-04-04T02:49:29.245Z,98404.30
2019-04-04T02:51:55.858Z,98418.68
2019-04-04T02:54:24.629Z,98417.86
2019-04-04T02:56:51.216Z,98413.63
2019-04-04T02:59:21.770Z,98410.34
2019-04-04T03:01:48.842Z,98423.94
2019-04-04T03:04:15.631Z,98415.02
2019-04-04T03:06:42.378Z,98406.93
2019-04-04T03:09:10.393Z,98409.34
2019-04-04T03:11:37.480Z,98405.28
2019-04-04T03:14:04.766Z,98403.27
2019-04-04T03:16:31.688Z,98398.62
2019-04-04T03:18:58.463Z,98409.16
2019-04-04T03:21:25.721Z,98407.73
2019-04-04T03:23:52.496Z,98403.27
2019-04-04T03:26:20.597Z,98415.41
2019-04-04T03:28:47.523Z,98393.75
2019-04-04T03:31:14.573Z,98395.75
2019-04-04T03:33:41.373Z,98394.74
2019-04-04T03:36:08.190Z,98404.48
2019-04-04T03:38:35.171Z,98401.66
2019-04-04T03:41:02.069Z,98403.27
2019-04-04T03:43:28.835Z,98407.33
2019-04-04T03:46:00.154Z,98406.30
2019-04-04T03:48:24.304Z,98411.97
2019-04-04T03:50:51.394Z,98417.84
2019-04-04T03:53:20.094Z,98412.15
2019-04-04T03:55:46.808Z,98411.75
2019-04-04T03:58:13.582Z,98416.15
2019-04-04T04:00:40.715Z,98416.56
2019-04-04T04:03:07.593Z,98419.94
2019-04-04T04:05:36.639Z,98413.27
2019-04-04T04:08:03.321Z,98417.33
2019-04-04T04:10:33.434Z,98422.52
2019-04-04T04:12:59.182Z,98414.80
2019-04-04T04:15:29.042Z,98418.42
2019-04-04T04:17:55.222Z,98417.64
2019-04-04T04:20:22.772Z,98419.20
2019-04-04T04:22:50.923Z,98422.91
2019-04-04T04:25:18.221Z,98424.10
2019-04-04T04:27:48.499Z,98428.11
2019-04-04T04:30:13.839Z,98422.81
2019-04-04T04:32:40.629Z,98426.08
2019-04-04T04:35:09.138Z,98422.49
2019-04-04T04:37:36.163Z,98422.78
2019-04-04T04:40:04.151Z,98419.14
2019-04-04T04:42:30.882Z,98426.08
2019-04-04T04:44:57.863Z,98417.98
2019-04-04T04:47:24.603Z,98419.59
2019-04-04T04:49:51.346Z,98415.59
2019-04-04T04:52:18.443Z,98418.22
2019-04-04T04:54:45.295Z,98406.23
2019-04-04T04:57:28.153Z,98419.38
2019-04-04T04:59:40.757Z,98421.63
2019-04-04T05:02:07.650Z,98420.36
2019-04-04T05:04:34.425Z,98412.72
2019-04-04T05:07:01.212Z,98406.67
2019-04-04T05:09:27.923Z,98413.94
2019-04-04T05:11:54.827Z,98415.59
2019-04-04T05:14:21.677Z,98413.97
2019-04-04T05:16:48.451Z,98412.59
2019-04-04T05:19:15.289Z,98416.05
2019-04-04T05:21:42.279Z,98417.09
2019-04-04T05:24:09.060Z,98420.95
2019-04-04T05:26:38.516Z,98425.02
2019-04-04T05:29:04.608Z,98428.69
2019-04-04T05:31:31.363Z,98421.16
2019-04-04T05:33:59.173Z,98413.66
2019-04-04T05:36:26.478Z,98410.90
2019-04-04T05:38:53.249Z,98415.34
2019-04-04T05:41:20.413Z,98422.27
2019-04-04T05:43:47.167Z,98404.43
2019-04-04T05:46:13.918Z,98413.78
2019-04-04T05:48:40.775Z,98408.76
2019-04-04T05:51:07.753Z,98408.76
2019-04-04T05:53:35.429Z,98405.28
2019-04-04T05:56:06.151Z,98403.27
2019-04-04T05:58:31.845Z,98404.88
2019-04-04T06:01:01.504Z,98403.52
2019-04-04T06:03:27.781Z,98403.26
2019-04-04T06:05:54.720Z,98413.53
2019-04-04T06:08:21.513Z,98407.97
2019-04-04T06:10:50.089Z,98413.50
2019-04-04T06:13:17.006Z,98402.39
2019-04-04T06:15:43.969Z,98404.86
2019-04-04T06:18:11.812Z,98409.81
2019-04-04T06:20:38.945Z,98403.86
2019-04-04T06:23:05.774Z,98405.99
2019-04-04T06:25:35.658Z,98411.86
2019-04-04T06:28:01.316Z,98406.83
2019-04-04T06:30:28.251Z,98395.95
2019-04-04T06:32:54.971Z,98396.91
2019-04-04T06:35:21.754Z,98395.72
2019-04-04T06:37:51.338Z,98400.12
2019-04-04T06:40:18.252Z,98398.35
2019-04-04T06:42:45.195Z,98393.59
2019-04-04T06:45:15.493Z,98398.00
2019-04-04T06:47:42.953Z,98396.95
2019-04-04T06:50:09.673Z,98390.80
2019-04-04T06:52:36.814Z,98396.20
2019-04-04T06:55:05.443Z,98400.28
2019-04-04T06:57:32.205Z,98399.59
2019-04-04T06:59:59.021Z,98403.69
2019-04-04T07:02:25.809Z,98397.09
2019-04-04T07:04:53.435Z,98397.00
2019-04-04T07:07:20.322Z,98396.95
2019-04-04T07:09:48.238Z,98400.58
2019-04-04T07:12:24.424Z,98400.41
2019-04-04T07:14:45.885Z,98391.85
2019-04-04T07:17:16.176Z,98396.89
2019-04-04T07:19:43.996Z,98393.64
2019-04-04T07:22:10.907Z,98398.41
2019-04-04T07:24:38.459Z,98403.62
2019-04-04T07:27:05.270Z,98401.48
2019-04-04T07:29:32.116Z,98397.52
2019-04-04T07:31:59.749Z,98400.97
2019-04-04T07:34:26.560Z,98398.30
2019-04-04T07:36:53.470Z,98388.39
2019-04-04T07:39:20.298Z,98391.05
2019-04-04T07:41:47.286Z,98385.97
2019-04-04T07:44:14.113Z,98387.98
2019-04-04T07:46:41.931Z,98387.83
2019-04-04T07:49:09.580Z,98390.40
2019-04-04T07:51:36.345Z,98391.56
2019-04-04T07:54:03.121Z,98397.16
2019-04-04T07:56:29.972Z,98394.28
2019-04-04T07:58:56.825Z,98398.55
2019-04-04T08:01:23.658Z,98400.93
2019-04-04T08:03:50.417Z,98396.03
2019-04-04T08:06:17.238Z,98401.77
2019-04-04T08:08:44.114Z,98402.77
2019-04-04T08:11:13.229Z,98405.48
2019-04-04T08:13:39.675Z,98415.06
2019-04-04T08:16:06.902Z,98413.02
2019-04-04T08:18:35.184Z,98405.52
2019-04-04T08:21:02.023Z,98396.39
2019-04-04T08:23:28.819Z,98398.10
2019-04-04T08:25:55.629Z,98389.73
2019-04-04T08:28:22.531Z,98386.31
2019-04-04T08:30:49.435Z,98374.54
2019-04-04T08:33:16.227Z,98367.36
2019-04-04T08:35:43.335Z,98371.05
2019-04-04T08:38:10.442Z,98363.60
2019-04-04T08:40:37.386Z,98357.72
2019-04-04T08:43:04.175Z,98361.20
2019-04-04T08:45:30.979Z,98356.31
2019-04-04T08:47:57.745Z,98358.67
2019-04-04T08:50:24.492Z,98360.45
2019-04-04T08:52:51.451Z,98365.94
2019-04-04T08:55:18.313Z,98366.45
2019-04-04T08:57:45.208Z,98365.42
2019-04-04T09:00:12.189Z,98355.35
2019-04-04T09:02:39.000Z,98358.92
2019-04-04T09:05:11.782Z,98360.30
2019-04-04T09:07:34.760Z,98361.91
2019-04-04T09:10:02.202Z,98363.25
2019-04-04T09:12:28.966Z,98362.50
2019-04-04T09:14:56.143Z,98367.30
2019-04-04T09:17:23.110Z,98362.80
2019-04-04T09:19:49.923Z,98361.44
2019-04-04T09:22:16.935Z,98354.73
2019-04-04T09:24:43.681Z,98356.36
2019-04-04T09:27:10.450Z,98350.72
2019-04-04T09:29:37.338Z,98351.51
2019-04-04T09:32:04.171Z,98352.89
2019-04-04T09:34:30.932Z,98355.53
2019-04-04T09:36:57.710Z,98352.55
2019-04-04T09:39:24.727Z,98347.41
2019-04-04T09:41:51.467Z,98346.00
2019-04-04T09:44:18.250Z,98341.39
2019-04-04T09:46:45.914Z,98333.61
2019-04-04T09:49:13.085Z,98333.88
2019-04-04T09:51:40.128Z,98332.91
2019-04-04T09:54:06.947Z,98332.48
2019-04-04T09:56:33.741Z,98326.17
2019-04-04T09:59:00.606Z,98321.81
2019-04-04T10:01:27.690Z,98324.09
2019-04-04T10:03:54.436Z,98318.20
2019-04-04T10:06:21.201Z,98303.07
2019-04-04T10:08:47.967Z,98303.09
2019-04-04T10:11:14.780Z,98298.70
2019-04-04T10:13:41.655Z,98303.12
2019-04-04T10:16:08.411Z,98297.91
2019-04-04T10:18:35.564Z,98291.78
2019-04-04T10:21:11.853Z,98294.20
2019-04-04T10:23:31.773Z,98285.55
2019-04-04T10:25:58.824Z,98288.88
2019-04-04T10:28:25.602Z,98277.95
2019-04-04T10:30:52.412Z,98269.93
2019-04-04T10:33:19.162Z,98268.31
2019-04-04T10:35:46.068Z,98272.73
2019-04-04T10:38:12.891Z,98254.86
2019-04-04T10:40:39.718Z,98241.09
2019-04-04T10:43:06.678Z,98257.16
2019-04-04T10:45:33.560Z,98248.44
2019-04-04T10:48:00.315Z,98243.73
2019-04-04T10:50:27.509Z,98236.06
2019-04-04T10:52:54.460Z,98232.45
2019-04-04T10:55:21.382Z,98231.89
2019-04-04T10:57:48.171Z,98239.22
2019-04-04T11:00:15.246Z,98237.12
2019-04-04T11:02:42.363Z,98235.12
2019-04-04T11:05:09.978Z,98230.45
2019-04-04T11:07:36.726Z,98231.61
2019-04-04T11:10:04.599Z,98227.33
2019-04-04T11:12:34.124Z,98221.75
2019-04-04T11:15:00.358Z,98206.05
2019-04-04T11:17:27.296Z,98222.30
2019-04-04T11:19:54.731Z,98212.66
2019-04-04T11:22:21.600Z,98215.61
2019-04-04T11:24:48.366Z,98210.94
2019-04-04T11:27:17.484Z,98215.19
2019-04-04T11:29:43.976Z,98209.23
2019-04-04T11:32:10.866Z,98204.77
2019-04-04T11:34:37.636Z,98204.77
2019-04-04T11:37:04.470Z,98208.48
2019-04-04T11:39:31.449Z,98202.04
2019-04-04T11:41:58.282Z,98201.74
2019-04-04T11:44:25.094Z,98194.13
2019-04-04T11:46:51.893Z,98192.74
2019-04-04T11:49:18.872Z,98194.96
2019-04-04T11:51:45.601Z,98188.55
2019-04-04T11:54:12.355Z,98189.31
2019-04-04T11:56:39.242Z,98186.94
2019-04-04T11:59:08.171Z,98184.36
2019-04-04T12:01:39.342Z,98187.66
2019-04-04T12:04:06.070Z,98173.16
2019-04-04T12:06:33.022Z,98169.77
2019-04-04T12:08:59.856Z,98173.77
2019-04-04T12:11:26.740Z,98171.66
2019-04-04T12:13:53.499Z,98163.06
2019-04-04T12:16:20.348Z,98165.36
2019-04-04T12:18:47.169Z,98148.55
2019-04-04T12:21:14.007Z,98153.12
2019-04-04T12:23:40.795Z,98153.67
2019-04-04T12:26:09.183Z,98170.14
2019-04-04T12:28:37.253Z,98150.55
2019-04-04T12:31:04.197Z,98143.49
2019-04-04T12:33:30.971Z,98144.53
2019-04-04T12:35:57.759Z,98145.89
2019-04-04T12:38:24.772Z,98149.57
2019-04-04T12:40:51.537Z,98144.41
2019-04-04T12:43:18.254Z,98130.58
2019-04-04T12:45:45.047Z,98131.27
2019-04-04T12:48:11.883Z,98131.97
2019-04-04T12:50:38.652Z,98131.33
2019-04-04T12:53:05.416Z,98119.77
2019-04-04T12:55:32.379Z,98129.85
2019-04-04T12:57:59.280Z,98123.90
2019-04-04T13:00:26.131Z,98118.09
2019-04-04T13:02:52.863Z,98125.70
2019-04-04T13:05:20.127Z,98111.56
2019-04-04T13:07:47.060Z,98117.47
2019-04-04T13:10:15.014Z,98107.15
2019-04-04T13:12:41.823Z,98108.51
2019-04-04T13:15:08.845Z,98109.05
2019-04-04T13:17:35.714Z,98102.42
2019-04-04T13:20:04.425Z,98096.29
2019-04-04T13:22:31.389Z,98100.35
2019-04-04T13:24:58.231Z,98093.38
2019-04-04T13:27:25.021Z,98101.42
2019-04-04T13:29:51.852Z,98097.22
2019-04-04T13:32:18.777Z,98104.74
2019-04-04T13:34:58.358Z,98108.81
2019-04-04T13:37:14.303Z,98110.21
2019-04-04T13:39:41.124Z,98109.52
2019-04-04T13:42:08.087Z,98102.20
2019-04-04T13:47:47.903Z,98100.58
2019-04-04T13:50:14.843Z,98102.03
2019-04-04T13:52:41.935Z,98091.34
2019-04-04T13:55:15.398Z,98093.38
2019-04-04T13:57:42.443Z,98098.54
2019-04-04T14:00:09.692Z,98091.45
2019-04-04T14:02:38.336Z,98092.07
2019-04-04T14:05:10.011Z,98091.29
2019-04-04T14:07:35.917Z,98089.23
2019-04-04T14:10:05.566Z,98082.98
2019-04-04T14:12:32.180Z,98094.05
2019-04-04T14:14:59.045Z,98092.91
2019-04-04T14:17:26.163Z,98094.50
2019-04-04T14:19:52.945Z,98081.77
2019-04-04T14:22:19.774Z,98100.66
2019-04-04T14:24:46.989Z,98088.72
2019-04-04T14:27:13.738Z,98079.73
2019-04-04T14:29:40.618Z,98082.78
2019-04-04T14:32:07.447Z,98086.34
2019-04-04T14:34:34.399Z,98085.38
2019-04-04T14:37:01.127Z,98076.01
2019-04-04T14:39:27.972Z,98091.18
2019-04-04T14:41:54.811Z,98091.34
2019-04-04T14:44:21.718Z,98092.31
2019-04-04T14:46:51.105Z,98094.17
2019-04-04T14:49:18.457Z,98089.06
2019-04-04T14:51:45.218Z,98088.42
2019-04-04T14:54:12.008Z,98094.14
2019-04-04T14:56:38.932Z,98091.33
2019-04-04T14:59:05.713Z,98089.74
2019-04-04T15:01:34.930Z,98084.03
2019-04-04T15:04:01.109Z,98085.12
2019-04-04T15:06:27.913Z,98084.42
2019-04-04T15:08:54.635Z,98085.81
2019-04-04T15:11:24.474Z,98095.52
2019-04-04T15:13:50.186Z,98091.18
2019-04-04T15:16:17.068Z,98085.81
2019-04-04T15:18:43.897Z,98085.58
2019-04-04T15:21:10.762Z,98083.39
2019-04-04T15:23:37.557Z,98097.08
2019-04-04T15:26:04.358Z,98090.70
2019-04-04T15:28:31.194Z,98091.27
2019-04-04T15:30:58.025Z,98094.03
2019-04-04T15:33:24.801Z,98095.09
2019-04-04T15:35:51.729Z,98099.45
2019-04-04T15:38:18.652Z,98096.47
2019-04-04T15:40:45.437Z,98104.84
2019-04-04T15:43:12.233Z,98096.23
2019-04-04T15:45:39.317Z,98095.75
2019-04-04T15:48:06.284Z,98097.13
2019-04-04T15:50:33.107Z,98097.87
2019-04-04T15:53:00.209Z,98100.91
2019-04-04T15:55:26.999Z,98095.32
2019-04-04T15:57:53.781Z,98095.08
2019-04-04T16:00:20.560Z,98095.32
2019-04-04T16:02:47.553Z,98098.05
2019-04-04T16:05:14.324Z,98101.28
2019-04-04T16:07:41.065Z,98106.40
2019-04-04T16:10:08.155Z,98105.05
2019-04-04T16:12:34.963Z,98110.98
2019-04-04T16:15:01.860Z,98101.09
2019-04-04T16:17:28.599Z,98096.03
2019-04-04T16:19:55.452Z,98106.22
2019-04-04T16:22:22.211Z,98106.26
2019-04-04T16:24:48.962Z,98107.86
2019-04-04T16:27:16.299Z,98110.03
2019-04-04T16:29:44.276Z,98110.04
2019-04-04T16:32:13.039Z,98114.31
2019-04-04T16:34:39.785Z,98121.05
2019-04-04T16:37:06.661Z,98118.13
2019-04-04T16:39:35.496Z,98103.09
2019-04-04T16:42:02.796Z,98108.20
2019-04-04T16:44:29.797Z,98121.34
2019-04-04T16:46:56.593Z,98120.26
2019-04-04T16:49:23.399Z,98114.39
2019-04-04T16:51:50.201Z,98111.72
2019-04-04T16:54:17.054Z,98117.87
2019-04-04T16:56:43.927Z,98125.14
2019-04-04T16:59:10.620Z,98124.09
2019-04-04T17:01:37.420Z,98129.16
2019-04-04T17:04:04.205Z,98124.36
2019-04-04T17:06:31.180Z,98129.47
2019-04-04T17:08:57.968Z,98128.94
2019-04-04T17:11:24.713Z,98128.14
2019-04-04T17:13:51.582Z,98136.45
2019-04-04T17:16:21.178Z,98135.38
2019-04-04T17:18:47.140Z,98144.22
2019-04-04T17:21:13.906Z,98140.20
2019-04-04T17:23:41.079Z,98143.43
2019-04-04T17:26:07.886Z,98139.67
2019-04-04T17:28:34.637Z,98143.14
2019-04-04T17:31:01.493Z,98136.67
2019-04-04T17:33:28.741Z,98149.52
2019-04-04T17:35:55.839Z,98143.34
2019-04-04T17:38:22.633Z,98153.50
2019-04-04T17:40:49.427Z,98158.85
2019-04-04T17:43:16.208Z,98169.24
2019-04-04T17:45:43.026Z,98162.57
2019-04-04T17:48:09.832Z,98171.09
2019-04-04T17:50:36.822Z,98172.13
2019-04-04T17:53:03.610Z,98176.68
2019-04-04T17:55:30.389Z,98179.08
2019-04-04T17:57:57.966Z,98186.02
2019-04-04T18:00:25.700Z,98183.86
2019-04-04T18:02:52.568Z,98192.41
2019-04-04T18:05:19.502Z,98202.02
2019-04-04T18:07:46.477Z,98206.80
2019-04-04T18:10:13.443Z,98214.55
2019-04-04T18:12:41.000Z,98208.63
2019-04-04T18:15:09.065Z,98214.72
2019-04-04T18:17:35.934Z,98218.51
2019-04-04T18:20:06.448Z,98223.30
2019-04-04T18:22:36.032Z,98229.94
2019-04-04T18:25:05.024Z,98231.46
2019-04-04T18:27:31.944Z,98234.41
2019-04-04T18:29:59.104Z,98235.48
2019-04-04T18:32:25.928Z,98233.32
2019-04-04T18:34:52.744Z,98233.83
2019-04-04T18:37:19.702Z,98238.88
2019-04-04T18:39:46.527Z,98230.59
2019-04-04T18:42:13.401Z,98228.44
2019-04-04T18:44:40.595Z,98239.13
2019-04-04T18:47:07.329Z,98234.05
2019-04-04T18:49:34.253Z,98236.72
2019-04-04T18:52:01.008Z,98228.42
2019-04-04T18:54:27.990Z,98233.48
2019-04-04T18:56:54.756Z,98241.73
2019-04-04T18:59:21.590Z,98247.58
2019-04-04T19:01:48.722Z,98240.62
2019-04-04T19:04:15.502Z,98246.46
2019-04-04T19:06:42.326Z,98245.27
2019-04-04T19:09:15.228Z,98242.59
2019-04-04T19:11:40.038Z,98241.50
2019-04-04T19:14:06.791Z,98240.41
2019-04-04T19:16:33.561Z,98241.41
2019-04-04T19:19:00.341Z,98247.25
2019-04-04T19:21:27.170Z,98248.27
2019-04-04T19:23:54.096Z,98237.86
2019-04-04T19:26:21.033Z,98243.91
2019-04-04T19:28:47.752Z,98236.70
2019-04-04T19:31:14.733Z,98243.04
2019-04-04T19:33:41.653Z,98239.51
2019-04-04T19:36:10.041Z,98252.23
2019-04-04T19:38:36.842Z,98254.91
2019-04-04T19:41:04.056Z,98255.91
2019-04-04T19:43:30.767Z,98244.11
2019-04-04T19:45:57.577Z,98250.77
2019-04-04T19:48:24.664Z,98250.44
2019-04-04T19:50:51.994Z,98252.56
2019-04-04T19:53:18.757Z,98252.00
2019-04-04T19:55:45.550Z,98249.30
2019-04-04T19:58:12.450Z,98253.75
2019-04-04T20:00:39.250Z,98257.06
2019-04-04T20:03:06.002Z,98256.29
2019-04-04T20:05:32.862Z,98257.84
2019-04-04T20:07:59.720Z,98260.20
2019-04-04T20:10:26.480Z,98252.52
2019-04-04T20:12:53.647Z,98254.55
2019-04-04T20:15:20.690Z,98254.81
2019-04-04T20:17:47.469Z,98258.28
2019-04-04T20:20:14.369Z,98259.27
2019-04-04T20:22:43.602Z,98260.55
2019-04-04T20:25:10.375Z,98265.39
2019-04-04T20:27:37.464Z,98268.31
2019-04-04T20:30:06.297Z,98264.99
2019-04-04T20:32:33.026Z,98268.00
2019-04-04T20:34:59.929Z,98269.49
2019-04-04T20:37:26.726Z,98272.45
2019-04-04T20:39:53.625Z,98277.46
2019-04-04T20:42:20.402Z,98286.63
2019-04-04T20:44:47.228Z,98280.67
2019-04-04T20:47:14.017Z,98285.50
2019-04-04T20:49:40.747Z,98286.56
2019-04-04T20:52:07.514Z,98283.00
2019-04-04T20:54:34.454Z,98283.91
2019-04-04T20:57:01.222Z,98290.50
2019-04-04T20:59:28.343Z,98289.61
2019-04-04T21:01:55.696Z,98285.41
2019-04-04T21:04:22.481Z,98294.94
2019-04-04T21:06:49.377Z,98291.56
2019-04-04T21:09:16.190Z,98290.35
2019-04-04T21:11:43.148Z,98283.27
2019-04-04T21:14:09.937Z,98292.38
2019-04-04T21:16:36.769Z,98295.03
2019-04-04T21:19:03.604Z,98296.06
2019-04-04T21:21:30.343Z,98290.34
2019-04-04T21:23:57.241Z,98298.08
2019-04-04T21:26:23.991Z,98304.02
2019-04-04T21:28:50.799Z,98304.11
2019-04-04T21:31:17.610Z,98301.02
2019-04-04T21:33:44.380Z,98300.39
2019-04-04T21:36:11.160Z,98300.32
2019-04-04T21:38:38.024Z,98303.78
2019-04-04T21:41:04.751Z,98301.34
2019-04-04T21:43:31.928Z,98305.53
2019-04-04T21:45:58.677Z,98302.66
2019-04-04T21:48:25.445Z,98305.97
2019-04-04T21:50:52.258Z,98310.38
2019-04-04T21:53:19.099Z,98313.14
2019-04-04T21:55:45.841Z,98311.33
2019-04-04T21:58:12.700Z,98306.95
2019-04-04T22:00:43.409Z,98302.47
2019-04-04T22:03:10.248Z,98310.30
2019-04-04T22:05:37.288Z,98319.27
2019-04-04T22:08:04.142Z,98312.16
2019-04-04T22:10:30.924Z,98321.84
2019-04-04T22:12:57.689Z,98319.77
2019-04-04T22:15:24.649Z,98317.10
2019-04-04T22:17:53.033Z,98313.97
2019-04-04T22:20:19.748Z,98324.94
2019-04-04T22:22:46.557Z,98328.22
2019-04-04T22:25:13.827Z,98315.57
2019-04-04T22:27:40.578Z,98325.97
2019-04-04T22:30:07.344Z,98316.64
2019-04-04T22:32:34.644Z,98325.42
2019-04-04T22:35:01.464Z,98320.83
2019-04-04T22:37:29.573Z,98321.16
2019-04-04T22:39:56.469Z,98322.62
2019-04-04T22:42:23.524Z,98317.88
2019-04-04T22:44:50.312Z,98322.06
2019-04-04T22:47:17.054Z,98330.03
2019-04-04T22:49:43.778Z,98327.17
2019-04-04T22:52:10.652Z,98326.77
2019-04-04T22:54:37.435Z,98329.05
2019-04-04T22:57:04.181Z,98326.63
2019-04-04T22:59:30.956Z,98322.94
2019-04-04T23:01:58.675Z,98335.54
2019-04-04T23:04:25.496Z,98321.45
2019-04-04T23:06:52.679Z,98329.77
2019-04-04T23:09:19.595Z,98320.66
2019-04-04T23:11:46.365Z,98323.87
2019-04-04T23:14:13.181Z,98328.95
2019-04-04T23:16:40.028Z,98323.67
2019-04-04T23:19:06.790Z,98319.41
2019-04-04T23:21:33.563Z,98313.39
2019-04-04T23:24:00.515Z,98320.68
2019-04-04T23:26:27.294Z,98321.48
2019-04-04T23:28:54.060Z,98321.02
2019-04-04T23:31:20.787Z,98318.83
2019-04-04T23:33:47.649Z,98315.03
2019-04-04T23:36:14.440Z,98308.20
2019-04-04T23:38:41.181Z,98315.50
2019-04-04T23:41:08.520Z,98317.56
2019-04-04T23:43:35.384Z,98316.52
2019-04-04T23:46:02.179Z,98312.38
2019-04-04T23:48:29.059Z,98317.81
2019-04-04T23:50:55.825Z,98320.59
2019-04-04T23:53:22.611Z,98325.31
2019-04-04T23:55:49.408Z,98319.91
2019-04-04T23:58:16.122Z,98321.52
